This is the latest recevied weather packets stored in our database for station/object EA6AMI-5. If no packets are shown the sender has not sent any weather packets the latest 10 day(s).
| Time | Temp. | Humidity | Pressure | Rain* | Wind** | Luminosity | Snow |
|---|---|---|---|---|---|---|---|
| 1777476963 | 21.67° C | 58% | 1011.4 hPa | 0 mm | - | 138 W/m² | - |
| 1777476423 | 21.67° C | 61% | 1011.5 hPa | 0 mm | - | 187 W/m² | - |
| 1777475883 | 22.22° C | 59% | 1011.3 hPa | 0 mm | - | 156 W/m² | - |
| 1777475344 | 24.44° C | 51% | 1011.2 hPa | 0 mm | - | 231 W/m² | - |
| 1777474804 | 24.44° C | 44% | 1011 hPa | 0 mm | - | 257 W/m² | - |
| 1777474443 | 24.44° C | 43% | 1011 hPa | 0 mm | - | 309 W/m² | - |
| 1777473903 | 24.44° C | 42% | 1011 hPa | 0 mm | - | 284 W/m² | - |
| 1777473364 | 24.44° C | 41% | 1011.1 hPa | 0 mm | - | 288 W/m² | - |
| 1777472824 | 25° C | 40% | 1010.9 hPa | 0 mm | - | 378 W/m² | - |
| 1777472284 | 25.56° C | 39% | 1010.9 hPa | 0 mm | - | 643 W/m² | - |
| 1777471743 | 25.56° C | 39% | 1011.1 hPa | 0 mm | - | 639 W/m² | - |
| 1777471204 | 24.44° C | 41% | 1011 hPa | 0 mm | - | 565 W/m² | - |
| 1777470844 | 25° C | 41% | 1010.9 hPa | 0 mm | - | 615 W/m² | - |
| 1777470304 | 25.56° C | 40% | 1011 hPa | 0 mm | - | 693 W/m² | - |
| 1777469763 | 25° C | 41% | 1011.2 hPa | 0 mm | - | 702 W/m² | - |
| 1777469224 | 24.44° C | 42% | 1011.1 hPa | 0 mm | - | 656 W/m² | - |
| 1777468683 | 25° C | 43% | 1011.1 hPa | 0 mm | - | 535 W/m² | - |
| 1777468143 | 24.44° C | 45% | 1011 hPa | 0 mm | - | 554 W/m² | - |
| 1777467604 | 24.44° C | 46% | 1011.1 hPa | 0 mm | - | 534 W/m² | - |
| 1777467243 | 25° C | 45% | 1011 hPa | 0 mm | - | 623 W/m² | - |
| 1777466704 | 25° C | 44% | 1011.3 hPa | 0 mm | - | 619 W/m² | - |
| 1777466164 | 25° C | 43% | 1011.1 hPa | 0 mm | - | 752 W/m² | - |
| 1777465624 | 25° C | 43% | 1011.2 hPa | 0 mm | - | 813 W/m² | - |
| 1777465083 | 25° C | 43% | 1011.2 hPa | 0 mm | - | 810 W/m² | - |
| 1777464544 | 24.44° C | 44% | 1011.3 hPa | 0 mm | - | 815 W/m² | - |
* Rain latest hour (hover to see other rain measurements)
** Current wind speed in m/s (hover to see current wind gust speed)